Terminal Aerodrome Forecast
Issued by NWS Wilmington, OH

Home | Current Version | Previous Version | Text Only | Print | Product List | Glossary On
Versions: 1 2 3 4 5 6 7 8 9 10 11 12 13 14 15 16 17 18 19 20 21 22
000
FTUS41 KILN 291136
TAFDAY
TAF
KDAY 291136Z 2912/3012 21006KT 4SM TSRA OVC022CB
      TEMPO 2912/2916 2SM TSRA OVC010CB
     FM291600 12008KT 4SM SHRA OVC021
      TEMPO 2916/2920 2SM TSRA OVC011CB
     FM292000 12009KT P6SM VCSH SCT020 BKN060
     FM300600 15007KT P6SM BKN060=

USA.gov is the U.S. government's official web portal to all federal, state and local government web resources and services.